Aérodrome :
LOGIN :

S'inscrire | Disclaimer

   EN    FR    IT 

 










Légende :    VFR   VFR Marginal   IFR   IFR Intensif   IFR Très Intensif
Visi : 
Plafond : 
>= 8 km
>= 3000ft
5 à 8 km
1000 à 3000 ft
1500m à 5 km
500 à 1000 ft
800 à 1500m
200 à 500 ft
< 800m
< 200 ft
Symboles :   Orages  Brouillard  Fortes neiges  Fortes précipitations  Vent > 20 kt
SIGMETs :   Divers  Orages  Givrage  Turbulence  Onde Orograph.  Cendres Volcan.







- Altitude de l'aérodrome : 776 ft
- Code IATA : RMS


ETAR - Ramstein Air Base

DERNIER METAR :
  • 112156Z 00000KT 9999 FEW026 FEW048 OVC070 01/1 A3023 RMK AO2A SLP252 $

METARs EXPIRÉS :
  • 112056Z 00000KT 9999 OVC060 01/01 A3023 RMK AO2A SLP253 T00060006 56003 $
  • 112016Z 24003KT 9999 FEW022 SCT027 BKN045 OVC065 01/01 A3023 RMK AO2A SLP253 $
  • 111956Z 00000KT 9999 BKN029 OVC037 00/00 A3023 RMK AO2A CIG 028 RWY08 SLP254 T00040004 $

TAF TAF ETAR
Valide du 11 à 18h jusqu'au 13 à 00h UTC


111806Z 1118/1224 22006KT 9999 SCT035 BKN045 620452 QNH3020INS
TEMPO 1118/1123 8000 -RA FEW006 BKN035 620353
BECMG 1122/1123 30006KT 8000 BR FEW020 SCT040 QNH3020INS
BECMG 1201/1202 36006KT 3200 BR SCT001 SCT020 QNH3016INS
TEMPO 1206/1208 0800 FG VV001
BECMG 1212/1213 05009KT 9999 NSW SCT015 SCT050 QNH3015INS
BECMG 1220/1221 05009KT 9999 BKN030 BKN050 620303 QNH3010INS TX03/1212Z TNM01/1200Z
Pas de NOTAMs connus pour ce terrain.
1 SIGMET publié pour la FIR Langen (EDGG) :
 
EDGG SIGMET 1 VALID 112125/112130 EDZF
EDGG LANGEN FIR TEST SIGMET PLEASE DISREGARD=



MET'MAP, la Météo Aéronautique d'un coup d'oeil ! - Copyright ORBIFLY Décembre 2007 - Disclaimer

ORBIFLY MET'MAP TEAM :

Programmation & Développement : Alexandra Zaïnal
Conception & Développement : Baudouin d'Aumeries
Co-Programmation & Développement : Marc-Olivier Méhu
Soutien technique & logistique : Manuel Goepfert

Contact : metmap@orbifly.com




SOURCES & CREDITS :

   NOAA